Time;durP1;ratioP1;P1;durP2;ratioP2;P2;SDS_P1;SDS_P2;PMS_P1;PMS_P2;Temp;Humidity;BMP_temperature;BMP_pressure;BME280_temperature;BME280_humidity;BME280_pressure;Samples;Min_cycle;Max_cycle;Signal;HPM_P1;HPM_P2
2021/01/23 00:00:16;;;;;;;6.95;3.30;;;2.00;99.90;;;;;;4997955;28;20045;-75
2021/01/23 00:02:42;;;;;;;5.30;3.30;;;2.10;99.90;;;;;;4999616;28;20030;-75
2021/01/23 00:05:08;;;;;;;8.65;3.60;;;2.10;99.90;;;;;;4998897;28;20045;-75
2021/01/23 00:07:34;;;;;;;7.05;3.47;;;2.10;99.90;;;;;;4999026;28;20060;-75
2021/01/23 00:09:59;;;;;;;7.32;3.60;;;2.00;99.90;;;;;;4998125;28;20494;-75
2021/01/23 00:12:25;;;;;;;7.20;3.78;;;2.00;99.90;;;;;;4998197;28;20037;-75
2021/01/23 00:14:51;;;;;;;7.38;3.45;;;1.90;99.90;;;;;;4998309;28;20089;-75
2021/01/23 00:17:16;;;;;;;8.55;4.13;;;1.90;99.90;;;;;;4999376;28;20072;-74
2021/01/23 00:19:42;;;;;;;6.13;3.42;;;1.90;99.90;;;;;;4999183;28;20033;-75
2021/01/23 00:22:08;;;;;;;5.15;3.10;;;1.80;99.90;;;;;;4999217;28;20179;-75
2021/01/23 00:24:33;;;;;;;6.60;3.33;;;1.70;99.90;;;;;;4999186;28;20030;-75
2021/01/23 00:26:59;;;;;;;6.30;3.30;;;1.80;99.90;;;;;;4994281;28;20101;-75
2021/01/23 00:29:25;;;;;;;7.90;3.20;;;1.90;99.90;;;;;;4998732;28;20040;-75
2021/01/23 00:31:50;;;;;;;5.72;3.35;;;1.90;99.90;;;;;;4997771;28;20038;-75
2021/01/23 00:34:16;;;;;;;4.45;3.17;;;2.00;99.90;;;;;;4997932;28;20117;-75
2021/01/23 00:36:42;;;;;;;5.55;3.22;;;2.00;99.90;;;;;;4996955;28;20041;-75
2021/01/23 00:39:07;;;;;;;7.45;3.25;;;2.00;99.90;;;;;;4997462;28;20423;-75
2021/01/23 00:41:34;;;;;;;4.95;3.08;;;2.00;99.90;;;;;;4980238;28;20168;-75
2021/01/23 00:44:04;;;;;;;6.75;3.50;;;2.00;99.90;;;;;;4998700;28;20022;-75
2021/01/23 00:46:30;;;;;;;7.07;3.58;;;2.00;99.90;;;;;;4997160;28;20030;-75
2021/01/23 00:48:55;;;;;;;5.38;2.95;;;1.90;99.90;;;;;;4999073;28;20044;-75
2021/01/23 00:51:21;;;;;;;6.35;2.60;;;1.70;99.90;;;;;;4998363;28;20081;-75
2021/01/23 00:53:47;;;;;;;7.30;3.20;;;1.60;99.90;;;;;;4980580;28;20080;-75
2021/01/23 00:56:13;;;;;;;6.25;3.00;;;1.60;99.90;;;;;;4997115;28;20128;-75
2021/01/23 00:58:40;;;;;;;10.70;3.67;;;1.70;99.90;;;;;;4996398;28;20438;-75
2021/01/23 01:01:06;;;;;;;6.72;3.83;;;1.70;99.90;;;;;;4997258;28;20022;-75
2021/01/23 01:03:32;;;;;;;5.28;3.40;;;1.80;99.90;;;;;;4995501;28;20042;-75
2021/01/23 01:06:03;;;;;;;10.38;3.65;;;1.80;99.90;;;;;;4998117;28;20034;-75
2021/01/23 01:08:28;;;;;;;9.43;4.13;;;1.90;99.90;;;;;;4997303;28;20034;-75
2021/01/23 01:10:54;;;;;;;7.15;3.72;;;1.90;99.90;;;;;;4998919;28;20245;-75
2021/01/23 01:13:22;;;;;;;5.35;3.65;;;1.90;99.90;;;;;;4998022;28;20029;-75
2021/01/23 01:15:48;;;;;;;6.45;3.22;;;2.00;99.90;;;;;;4992818;28;20080;-75
2021/01/23 01:18:14;;;;;;;6.85;3.50;;;2.00;99.90;;;;;;4998459;28;20048;-75
2021/01/23 01:20:40;;;;;;;4.97;3.40;;;2.00;99.90;;;;;;4997955;28;20033;-75
2021/01/23 01:23:05;;;;;;;6.28;3.60;;;2.00;99.90;;;;;;4996914;28;20112;-75
2021/01/23 01:25:31;;;;;;;7.32;3.65;;;2.10;99.90;;;;;;4991120;28;20084;-75
2021/01/23 01:27:57;;;;;;;8.63;4.57;;;2.10;99.90;;;;;;4996793;28;20026;-75
2021/01/23 01:30:23;;;;;;;7.22;4.32;;;2.10;99.90;;;;;;4995974;28;20044;-75
2021/01/23 01:32:49;;;;;;;8.40;3.75;;;2.00;99.90;;;;;;4996076;28;20042;-75
2021/01/23 01:35:15;;;;;;;7.35;4.00;;;2.10;99.90;;;;;;4996731;28;20041;-75
2021/01/23 01:37:41;;;;;;;5.10;2.75;;;2.20;99.90;;;;;;4998014;28;20037;-72
2021/01/23 01:40:07;;;;;;;7.43;3.00;;;2.10;99.90;;;;;;4979700;28;20195;-72
2021/01/23 01:42:33;;;;;;;5.70;2.85;;;2.00;99.90;;;;;;4995527;28;20034;-72
2021/01/23 01:44:59;;;;;;;6.35;3.35;;;2.00;99.90;;;;;;4994909;28;20026;-72
2021/01/23 01:47:24;;;;;;;6.45;3.97;;;1.90;99.90;;;;;;4997763;28;20037;-72
2021/01/23 01:49:51;;;;;;;9.18;4.30;;;1.90;99.90;;;;;;4997332;28;20064;-72
2021/01/23 01:52:17;;;;;;;6.18;4.15;;;2.00;99.90;;;;;;4997115;28;20089;-72
2021/01/23 01:54:44;;;;;;;6.70;4.25;;;2.10;99.90;;;;;;4996373;28;20042;-72
2021/01/23 01:57:09;;;;;;;8.13;4.43;;;2.10;99.90;;;;;;4979169;28;20041;-72
2021/01/23 01:59:35;;;;;;;7.78;4.40;;;2.10;99.90;;;;;;4996484;28;20037;-72
2021/01/23 02:02:29;;;;;;;7.53;4.22;;;2.10;99.90;;;;;;4997847;28;20078;-72
2021/01/23 02:04:58;;;;;;;7.20;3.75;;;2.10;99.90;;;;;;4997011;28;20048;-72
2021/01/23 02:08:01;;;;;;;7.38;3.90;;;2.00;99.90;;;;;;4997786;28;20037;-72
2021/01/23 02:10:48;;;;;;;7.85;3.53;;;2.00;99.90;;;;;;4997685;28;20445;-75
2021/01/23 02:13:27;;;;;;;6.28;3.80;;;1.90;99.90;;;;;;4997088;28;20941;-72
2021/01/23 02:16:09;;;;;;;6.88;3.90;;;1.90;99.90;;;;;;4996204;28;20313;-72
2021/01/23 02:19:00;;;;;;;10.32;5.57;;;2.00;99.90;;;;;;4997399;28;20514;-72
2021/01/23 02:21:57;;;;;;;10.82;6.07;;;2.10;99.90;;;;;;4997288;28;20112;-73
2021/01/23 02:24:28;;;;;;;9.00;5.50;;;2.20;99.90;;;;;;4997404;28;20881;-73
2021/01/23 02:27:13;;;;;;;10.75;5.10;;;2.20;99.90;;;;;;4997125;28;20041;-73
2021/01/23 02:30:18;;;;;;;9.32;5.32;;;2.30;99.90;;;;;;5000084;28;20049;-73
2021/01/23 02:32:49;;;;;;;9.57;4.88;;;2.30;99.90;;;;;;4999530;28;20089;-73
2021/01/23 02:35:16;;;;;;;10.52;3.58;;;2.30;99.90;;;;;;5000054;28;20066;-73
2021/01/23 02:37:44;;;;;;;7.00;3.85;;;2.20;99.90;;;;;;4999743;28;20038;-73
2021/01/23 02:40:11;;;;;;;6.90;3.55;;;2.20;99.90;;;;;;4999412;28;20224;-73
2021/01/23 02:42:37;;;;;;;7.93;3.72;;;2.10;99.90;;;;;;4998461;28;20030;-73
2021/01/23 02:45:10;;;;;;;8.38;3.78;;;2.10;99.90;;;;;;4999544;28;20398;-72
2021/01/23 02:47:37;;;;;;;7.70;4.05;;;2.00;99.90;;;;;;5000136;28;20026;-75
2021/01/23 02:50:04;;;;;;;7.65;4.13;;;2.00;99.90;;;;;;4983002;28;20570;-75
2021/01/23 02:52:30;;;;;;;7.53;4.07;;;2.00;99.90;;;;;;4998524;28;20141;-75
2021/01/23 02:55:09;;;;;;;9.30;4.22;;;2.00;99.90;;;;;;4999326;28;20835;-75
2021/01/23 02:57:39;;;;;;;8.85;4.40;;;2.00;99.90;;;;;;5000248;28;20716;-75
2021/01/23 03:00:10;;;;;;;9.98;5.25;;;2.10;99.90;;;;;;4983090;28;20075;-74
2021/01/23 03:02:45;;;;;;;8.40;5.15;;;2.10;99.90;;;;;;5000656;28;20045;-75
2021/01/23 03:05:12;;;;;;;;;;;2.10;99.90;;;;;;4999158;28;20212;-72
2021/01/23 03:07:38;;;;;;;9.20;4.97;;;2.10;99.90;;;;;;4999647;28;20566;-72
2021/01/23 03:10:06;;;;;;;8.40;4.60;;;2.10;99.90;;;;;;4989757;28;20558;-71
2021/01/23 03:12:32;;;;;;;9.70;4.40;;;2.20;99.90;;;;;;4998025;28;20066;-72
2021/01/23 03:14:57;;;;;;;6.63;3.95;;;2.40;99.90;;;;;;4998566;28;20157;-74
2021/01/23 03:17:23;;;;;;;6.95;4.03;;;2.30;99.90;;;;;;4998680;28;20034;-74
2021/01/23 03:19:49;;;;;;;7.57;4.03;;;2.20;99.90;;;;;;4998161;28;20034;-74
2021/01/23 03:22:15;;;;;;;7.70;3.63;;;2.10;99.90;;;;;;4982195;28;20092;-74
2021/01/23 03:24:40;;;;;;;7.22;3.58;;;2.10;99.90;;;;;;4997781;28;20033;-74
2021/01/23 03:27:06;;;;;;;7.78;3.33;;;2.10;99.90;;;;;;4998831;28;20533;-72
2021/01/23 03:29:32;;;;;;;7.45;3.33;;;2.10;99.90;;;;;;5000002;28;20058;-75
2021/01/23 03:31:57;;;;;;;5.90;3.15;;;2.00;99.90;;;;;;4999119;28;20029;-75
2021/01/23 03:34:23;;;;;;;5.72;3.17;;;1.80;99.90;;;;;;4998265;28;20842;-74
2021/01/23 03:36:49;;;;;;;4.32;2.95;;;1.80;99.90;;;;;;4997770;28;20057;-74
2021/01/23 03:39:14;;;;;;;5.18;3.25;;;1.80;99.90;;;;;;4997552;28;20854;-74
2021/01/23 03:41:40;;;;;;;6.07;3.05;;;2.00;99.90;;;;;;4998746;28;20029;-74
2021/01/23 03:44:06;;;;;;;6.70;3.67;;;2.00;99.90;;;;;;4998134;28;20494;-74
2021/01/23 03:46:33;;;;;;;10.55;4.00;;;2.00;99.90;;;;;;4981593;28;20494;-74
2021/01/23 03:48:58;;;;;;;9.63;5.70;;;2.00;99.90;;;;;;4998408;28;20040;-74
2021/01/23 03:51:24;;;;;;;10.73;5.90;;;2.10;99.90;;;;;;4998423;28;20034;-74
2021/01/23 03:53:50;;;;;;;10.88;5.43;;;2.20;99.90;;;;;;4998108;28;20021;-74
2021/01/23 03:56:15;;;;;;;9.90;4.75;;;2.10;99.90;;;;;;4997712;28;20569;-74
2021/01/23 03:58:41;;;;;;;8.20;4.38;;;2.10;99.90;;;;;;4982063;28;20109;-74
2021/01/23 04:01:07;;;;;;;6.32;3.90;;;2.00;99.90;;;;;;5000062;28;20808;-73
2021/01/23 04:03:33;;;;;;;9.23;4.00;;;2.00;99.90;;;;;;4998814;28;20058;-74
2021/01/23 04:05:58;;;;;;;6.90;3.80;;;2.00;99.90;;;;;;4999054;28;20030;-74
2021/01/23 04:08:24;;;;;;;9.07;4.18;;;2.10;99.90;;;;;;4999240;28;20044;-74
2021/01/23 04:10:50;;;;;;;8.30;4.43;;;2.00;99.90;;;;;;4997822;28;20045;-74
2021/01/23 04:13:15;;;;;;;5.10;3.60;;;2.00;99.90;;;;;;4999123;28;20061;-73
2021/01/23 04:15:41;;;;;;;7.15;3.72;;;2.00;99.90;;;;;;4999144;28;20033;-74
2021/01/23 04:18:07;;;;;;;8.38;3.75;;;1.90;99.90;;;;;;4997346;28;20362;-74
2021/01/23 04:20:33;;;;;;;6.82;3.63;;;2.00;99.90;;;;;;4997515;28;20049;-73
2021/01/23 04:22:59;;;;;;;7.85;3.72;;;2.00;99.90;;;;;;4997947;28;20399;-73
2021/01/23 04:25:25;;;;;;;6.18;3.67;;;2.00;99.90;;;;;;4980297;28;20092;-73
2021/01/23 04:27:51;;;;;;;5.53;3.47;;;2.00;99.90;;;;;;4999801;28;20042;-74
2021/01/23 04:30:17;;;;;;;9.30;4.50;;;2.10;99.90;;;;;;4999151;28;20076;-74
2021/01/23 04:32:43;;;;;;;5.90;3.92;;;2.10;99.90;;;;;;4999034;28;20067;-73
2021/01/23 04:35:10;;;;;;;6.85;4.40;;;2.10;99.90;;;;;;4998506;28;20466;-73
2021/01/23 04:37:39;;;;;;;9.57;4.53;;;2.10;99.90;;;;;;4997767;28;20045;-74
2021/01/23 04:40:08;;;;;;;8.38;4.72;;;2.10;99.90;;;;;;4996476;28;20042;-73
2021/01/23 04:42:34;;;;;;;9.05;4.07;;;2.30;99.90;;;;;;4999051;28;20033;-74
2021/01/23 04:45:00;;;;;;;10.75;4.82;;;2.20;99.90;;;;;;4996975;28;20895;-73
2021/01/23 04:47:25;;;;;;;8.57;4.60;;;2.20;99.90;;;;;;4995717;28;20132;-74
2021/01/23 04:49:51;;;;;;;9.80;5.00;;;2.30;99.90;;;;;;4999044;28;20061;-74
2021/01/23 04:52:17;;;;;;;6.55;4.22;;;2.30;99.90;;;;;;4998302;28;20029;-74
2021/01/23 04:54:44;;;;;;;8.30;4.45;;;2.30;99.90;;;;;;4997072;28;20616;-74
2021/01/23 04:57:10;;;;;;;8.07;4.35;;;2.20;99.90;;;;;;4998187;28;20069;-74
2021/01/23 04:59:36;;;;;;;7.65;4.28;;;2.30;99.90;;;;;;4997399;28;20217;-74
2021/01/23 05:02:15;;;;;;;7.78;4.20;;;2.30;99.90;;;;;;4997968;28;20041;-74
2021/01/23 05:04:48;;;;;;;6.82;4.15;;;2.30;99.90;;;;;;4998257;28;20784;-74
2021/01/23 05:07:24;;;;;;;8.65;4.55;;;2.30;99.90;;;;;;4997034;28;20038;-72
2021/01/23 05:09:51;;;;;;;7.03;4.30;;;2.30;99.90;;;;;;4998269;28;20121;-73
2021/01/23 05:12:35;;;;;;;7.68;4.40;;;2.30;99.90;;;;;;4997906;28;20094;-73
2021/01/23 05:15:03;;;;;;;7.45;4.63;;;2.20;99.90;;;;;;4998083;28;20033;-72
2021/01/23 05:17:28;;;;;;;8.23;4.25;;;2.30;99.90;;;;;;4980135;28;20056;-72
2021/01/23 05:19:54;;;;;;;7.07;4.57;;;2.30;99.90;;;;;;4997129;28;20387;-72
2021/01/23 05:22:20;;;;;;;8.27;4.28;;;2.30;99.90;;;;;;4997200;28;20120;-72
2021/01/23 05:24:52;;;;;;;7.35;4.47;;;2.30;99.90;;;;;;4997715;28;20104;-73
2021/01/23 05:27:19;;;;;;;8.90;4.32;;;2.30;99.90;;;;;;4997010;28;20120;-73
2021/01/23 05:29:58;;;;;;;7.45;4.57;;;2.30;99.90;;;;;;4997708;28;20227;-72
2021/01/23 05:32:24;;;;;;;8.13;4.07;;;2.30;99.90;;;;;;4979999;28;20780;-73
2021/01/23 05:34:50;;;;;;;6.70;4.28;;;2.20;99.90;;;;;;4996450;28;20041;-73
2021/01/23 05:37:37;;;;;;;7.75;4.30;;;2.20;99.90;;;;;;4995991;28;20046;-73
2021/01/23 05:40:04;;;;;;;7.00;4.22;;;2.20;99.90;;;;;;4996035;28;20049;-73
2021/01/23 05:42:29;;;;;;;8.93;4.07;;;2.20;99.90;;;;;;4996315;28;20491;-73
2021/01/23 05:45:09;;;;;;;6.47;4.00;;;2.20;99.90;;;;;;4996509;28;20137;-73
2021/01/23 05:47:35;;;;;;;7.00;4.13;;;2.30;99.90;;;;;;4978551;28;20275;-73
2021/01/23 05:50:02;;;;;;;6.68;4.20;;;2.30;99.90;;;;;;4980141;28;20041;-75
2021/01/23 05:52:28;;;;;;;6.25;4.03;;;2.30;99.90;;;;;;4995098;28;20037;-75
2021/01/23 05:54:54;;;;;;;7.75;3.80;;;2.30;99.90;;;;;;4997956;28;20067;-76
2021/01/23 05:57:20;;;;;;;7.03;3.78;;;2.20;99.90;;;;;;4997709;28;20026;-76
2021/01/23 05:59:46;;;;;;;5.95;3.13;;;2.10;99.90;;;;;;4996828;28;20144;-76
2021/01/23 06:02:14;;;;;;;8.77;3.67;;;2.10;99.90;;;;;;4994576;28;20030;-76
2021/01/23 06:04:42;;;;;;;8.15;3.10;;;2.00;99.90;;;;;;4996117;28;20022;-75
2021/01/23 06:07:11;;;;;;;5.72;3.28;;;2.00;99.90;;;;;;5018059;28;20037;-76
2021/01/23 06:09:40;;;;;;;6.70;3.67;;;2.10;99.90;;;;;;5003564;28;20061;-76
2021/01/23 06:12:31;;;;;;;9.32;3.65;;;2.10;99.90;;;;;;4996531;28;20033;-76
2021/01/23 06:14:57;;;;;;;8.40;4.13;;;2.00;99.90;;;;;;5007954;28;20029;-76
2021/01/23 06:17:47;;;;;;;7.88;4.13;;;1.90;99.90;;;;;;5005797;28;20127;-76
2021/01/23 06:20:41;;;;;;;12.02;7.00;;;2.00;99.90;;;;;;5007523;28;20033;-76
2021/01/23 06:23:11;;;;;;;19.75;11.40;;;2.00;99.90;;;;;;5008003;28;20034;-75
2021/01/23 06:25:49;;;;;;;18.75;10.13;;;2.00;99.90;;;;;;5009506;28;20041;-76
2021/01/23 06:28:38;;;;;;;30.55;15.02;;;2.00;99.90;;;;;;4983946;28;20038;-76
2021/01/23 06:31:23;;;;;;;38.30;19.58;;;2.10;99.90;;;;;;4985510;28;20048;-76
2021/01/23 06:33:52;;;;;;;64.63;31.98;;;2.40;99.90;;;;;;5006900;28;20037;-76
2021/01/23 06:36:19;;;;;;;62.30;29.05;;;2.50;99.90;;;;;;5003524;28;20053;-76
2021/01/23 06:39:13;;;;;;;39.33;19.17;;;2.40;99.90;;;;;;5005555;28;20037;-73
2021/01/23 06:41:39;;;;;;;18.80;8.77;;;2.40;99.90;;;;;;5013127;28;20060;-73
2021/01/23 06:44:15;;;;;;;14.38;7.38;;;2.40;99.90;;;;;;4998322;28;20034;-73
2021/01/23 06:46:44;;;;;;;11.18;6.88;;;2.40;99.90;;;;;;4989484;28;20117;-73
2021/01/23 06:49:14;;;;;;;11.80;5.85;;;2.40;99.90;;;;;;5008327;28;20088;-73
2021/01/23 06:51:43;;;;;;;10.43;6.28;;;2.40;99.90;;;;;;5012096;28;20033;-72
2021/01/23 06:54:13;;;;;;;11.27;6.55;;;2.50;99.90;;;;;;5008909;28;20051;-72
2021/01/23 06:56:43;;;;;;;13.52;7.15;;;2.60;99.90;;;;;;5002045;28;20049;-72
2021/01/23 06:59:30;;;;;;;13.02;6.95;;;2.60;99.90;;;;;;5006201;28;20033;-73
2021/01/23 07:02:03;;;;;;;12.02;6.63;;;2.40;99.90;;;;;;5002692;28;20127;-73
2021/01/23 07:04:33;;;;;;;12.95;7.43;;;2.30;99.90;;;;;;5009161;28;20040;-72
2021/01/23 07:07:00;;;;;;;13.13;7.00;;;2.40;99.90;;;;;;5013521;28;20029;-72
2021/01/23 07:09:45;;;;;;;13.90;7.60;;;2.30;99.90;;;;;;5010188;28;20033;-73
2021/01/23 07:12:12;;;;;;;15.63;7.32;;;2.20;99.90;;;;;;5007683;28;20074;-73
2021/01/23 07:14:38;;;;;;;20.75;8.38;;;2.10;99.90;;;;;;5013926;28;20478;-72
2021/01/23 07:17:12;;;;;;;15.10;7.72;;;2.20;99.90;;;;;;5013580;28;20116;-72
2021/01/23 07:19:39;;;;;;;18.08;8.32;;;2.20;99.90;;;;;;5006636;28;20045;-73
2021/01/23 07:22:05;;;;;;;27.67;10.43;;;2.20;99.90;;;;;;5049093;28;20068;-72
2021/01/23 07:24:33;;;;;;;16.20;7.60;;;2.20;99.90;;;;;;5018656;28;20112;-72
2021/01/23 07:26:59;;;;;;;12.38;6.70;;;2.10;99.90;;;;;;5011905;28;20116;-71
2021/01/23 07:29:25;;;;;;;14.02;6.45;;;2.00;99.90;;;;;;5011672;28;20157;-73
2021/01/23 07:31:55;;;;;;;14.38;7.97;;;2.00;99.90;;;;;;5007747;28;20047;-73
2021/01/23 07:34:20;;;;;;;17.90;9.45;;;2.10;99.90;;;;;;5017099;28;20064;-74
2021/01/23 07:36:46;;;;;;;48.88;22.52;;;2.20;99.90;;;;;;5013733;28;20141;-73
2021/01/23 07:39:17;;;;;;;35.33;15.32;;;2.40;99.90;;;;;;4996239;28;20417;-72
2021/01/23 07:41:49;;;;;;;27.30;13.63;;;2.40;99.90;;;;;;5003623;28;20033;-73
2021/01/23 07:44:16;;;;;;;71.47;29.85;;;2.40;99.90;;;;;;5003942;28;20482;-73
2021/01/23 07:46:44;;;;;;;48.67;17.80;;;2.50;99.90;;;;;;5009038;28;20091;-74
2021/01/23 07:49:24;;;;;;;31.33;14.68;;;2.50;99.90;;;;;;5010519;28;20049;-74
2021/01/23 07:51:52;;;;;;;26.90;12.82;;;2.40;99.90;;;;;;5014293;28;20219;-74
2021/01/23 07:54:17;;;;;;;28.45;14.18;;;2.50;99.90;;;;;;5011825;28;20099;-75
2021/01/23 07:56:54;;;;;;;22.27;11.90;;;2.40;99.90;;;;;;5007154;28;20038;-75
2021/01/23 07:59:21;;;;;;;30.50;12.30;;;2.30;99.90;;;;;;5014803;28;20107;-75
2021/01/23 08:01:47;;;;;;;23.08;11.18;;;2.30;99.90;;;;;;5034401;28;20062;-74
2021/01/23 08:04:30;;;;;;;27.30;11.77;;;2.30;99.90;;;;;;5003798;28;20141;-75
2021/01/23 08:07:24;;;;;;;23.17;11.57;;;2.30;99.90;;;;;;5008056;28;20026;-74
2021/01/23 08:10:13;;;;;;;27.02;12.60;;;2.30;99.90;;;;;;5004083;28;20037;-75
2021/01/23 08:12:43;;;;;;;29.98;13.73;;;2.30;99.90;;;;;;5009233;28;20029;-74
2021/01/23 08:15:11;;;;;;;27.75;14.63;;;2.40;99.90;;;;;;5011034;28;20037;-75
2021/01/23 08:17:46;;;;;;;27.70;13.65;;;2.50;99.90;;;;;;5011348;28;20038;-74
2021/01/23 08:20:11;;;;;;;34.15;14.45;;;2.50;99.90;;;;;;5000733;28;20025;-75
2021/01/23 08:22:56;;;;;;;34.03;15.40;;;2.60;99.90;;;;;;5002635;28;20539;-75
2021/01/23 08:25:31;;;;;;;30.17;14.85;;;2.60;99.90;;;;;;5002262;28;20038;-75
2021/01/23 08:27:57;;;;;;;30.50;14.02;;;2.70;99.90;;;;;;4981320;28;20772;-75
2021/01/23 08:30:24;;;;;;;35.22;15.75;;;2.60;99.90;;;;;;4997456;28;20080;-76
2021/01/23 08:32:51;;;;;;;31.35;14.77;;;2.60;99.90;;;;;;4999750;28;20105;-76
2021/01/23 08:35:18;;;;;;;34.22;16.60;;;2.60;99.90;;;;;;4999591;28;20041;-77
2021/01/23 08:37:44;;;;;;;39.33;17.35;;;2.60;99.90;;;;;;4999512;28;20091;-77
2021/01/23 08:40:11;;;;;;;31.95;15.43;;;2.60;99.90;;;;;;5013789;28;20041;-77
2021/01/23 08:42:37;;;;;;;38.50;18.30;;;2.60;99.90;;;;;;5000271;28;20037;-77
2021/01/23 08:45:05;;;;;;;31.58;16.42;;;2.70;99.90;;;;;;5005875;28;20061;-77
2021/01/23 08:47:31;;;;;;;31.70;16.48;;;2.70;99.90;;;;;;4989724;28;20068;-77
2021/01/23 08:49:56;;;;;;;32.38;16.63;;;2.60;99.90;;;;;;5001945;28;20113;-77
2021/01/23 08:52:22;;;;;;;36.88;16.52;;;2.50;99.90;;;;;;5002892;28;20490;-77
2021/01/23 08:54:48;;;;;;;34.35;15.57;;;2.60;99.90;;;;;;5001782;28;20401;-78
2021/01/23 08:57:13;;;;;;;32.33;15.02;;;2.60;99.90;;;;;;4994836;28;20048;-77
2021/01/23 08:59:39;;;;;;;33.25;16.15;;;2.70;99.90;;;;;;4980443;28;20037;-73
2021/01/23 09:02:05;;;;;;;40.53;19.17;;;2.70;99.90;;;;;;4998052;28;20034;-76
2021/01/23 09:04:31;;;;;;;29.80;15.35;;;2.70;99.90;;;;;;4984154;28;20033;-77
2021/01/23 09:06:57;;;;;;;34.17;16.30;;;2.70;99.90;;;;;;4985540;28;20102;-76
2021/01/23 09:09:23;;;;;;;31.77;15.00;;;2.70;99.90;;;;;;5017361;28;20383;-76
2021/01/23 09:11:50;;;;;;;38.08;17.08;;;2.70;99.90;;;;;;4983462;28;20026;-77
2021/01/23 09:14:16;;;;;;;40.95;16.67;;;2.80;99.90;;;;;;4997425;28;20052;-76
2021/01/23 09:16:41;;;;;;;35.35;16.73;;;2.80;99.90;;;;;;4988708;28;20112;-76
2021/01/23 09:19:07;;;;;;;37.75;17.48;;;2.90;99.90;;;;;;4997144;28;20045;-75
2021/01/23 09:21:33;;;;;;;35.47;17.65;;;2.90;99.90;;;;;;4996039;28;20033;-76
2021/01/23 09:23:59;;;;;;;40.83;17.90;;;2.90;99.90;;;;;;4996980;28;20080;-75
2021/01/23 09:26:25;;;;;;;40.05;17.35;;;2.90;99.90;;;;;;5008437;28;20558;-76
2021/01/23 09:28:50;;;;;;;43.03;17.70;;;2.90;99.90;;;;;;5001396;28;20030;-76
2021/01/23 09:31:17;;;;;;;36.63;18.40;;;2.80;99.90;;;;;;4985716;28;20785;-75
2021/01/23 09:33:42;;;;;;;36.75;19.30;;;2.80;99.90;;;;;;4997649;28;20435;-76
2021/01/23 09:36:08;;;;;;;37.72;17.67;;;2.90;99.90;;;;;;5003635;28;20091;-75
2021/01/23 09:38:34;;;;;;;44.88;19.10;;;2.90;99.90;;;;;;5011197;28;20599;-76
2021/01/23 09:41:00;;;;;;;40.85;19.58;;;2.90;99.90;;;;;;4980868;28;20093;-75
2021/01/23 09:43:26;;;;;;;53.97;21.05;;;2.90;99.90;;;;;;5008581;28;20056;-76
2021/01/23 09:45:51;;;;;;;47.40;19.85;;;3.00;99.90;;;;;;5000690;28;20029;-76
2021/01/23 09:48:19;;;;;;;40.17;17.80;;;3.00;99.90;;;;;;4996831;28;20144;-75
2021/01/23 09:50:45;;;;;;;38.80;19.08;;;3.00;99.90;;;;;;5005978;28;20104;-76
2021/01/23 09:53:11;;;;;;;39.75;19.95;;;3.10;99.90;;;;;;5007002;28;20390;-76
2021/01/23 09:55:37;;;;;;;40.30;18.55;;;3.10;99.90;;;;;;4995094;28;20042;-78
2021/01/23 09:58:03;;;;;;;45.20;19.27;;;3.10;99.90;;;;;;5007892;28;20493;-76
2021/01/23 10:00:28;;;;;;;39.63;17.75;;;3.10;99.90;;;;;;4984982;28;20410;-76
2021/01/23 10:02:54;;;;;;;47.17;22.27;;;3.10;99.90;;;;;;5002875;28;20053;-76
2021/01/23 10:05:20;;;;;;;43.47;19.83;;;3.10;99.90;;;;;;4982845;28;20592;-76
2021/01/23 10:07:45;;;;;;;36.15;19.25;;;3.10;99.90;;;;;;5010455;28;20045;-75
2021/01/23 10:10:11;;;;;;;42.17;19.05;;;3.00;99.90;;;;;;5024013;28;20099;-76
2021/01/23 10:12:37;;;;;;;39.40;18.20;;;3.00;99.90;;;;;;4979628;28;20658;-77
2021/01/23 10:15:04;;;;;;;36.78;18.48;;;3.00;99.90;;;;;;4982136;28;20738;-76
2021/01/23 10:17:30;;;;;;;38.83;18.02;;;3.00;99.90;;;;;;4979799;28;20044;-76
2021/01/23 10:19:55;;;;;;;42.20;22.42;;;3.00;99.90;;;;;;4992759;28;20041;-77
2021/01/23 10:22:21;;;;;;;44.17;22.85;;;3.00;99.90;;;;;;5008067;28;20029;-77
2021/01/23 10:24:47;;;;;;;43.00;21.85;;;3.00;99.90;;;;;;5008235;28;20041;-77
2021/01/23 10:27:12;;;;;;;49.58;23.15;;;3.00;99.90;;;;;;4980951;28;20375;-77
2021/01/23 10:29:38;;;;;;;67.75;25.15;;;3.10;99.90;;;;;;4996279;28;20073;-77
2021/01/23 10:32:04;;;;;;;50.85;23.05;;;3.20;99.90;;;;;;5008399;28;20038;-77
2021/01/23 10:34:30;;;;;;;62.90;33.40;;;3.20;99.90;;;;;;4978748;28;20046;-77
2021/01/23 10:36:56;;;;;;;52.78;23.10;;;3.20;99.90;;;;;;5003454;28;20034;-77
2021/01/23 10:39:21;;;;;;;50.08;22.75;;;3.30;99.90;;;;;;4988300;28;20957;-77
2021/01/23 10:41:47;;;;;;;54.45;23.40;;;3.30;99.90;;;;;;5004189;28;20033;-77
2021/01/23 10:44:14;;;;;;;42.03;21.23;;;3.30;99.90;;;;;;4995986;28;20125;-77
2021/01/23 10:46:39;;;;;;;42.78;21.13;;;3.30;99.90;;;;;;4982185;28;20030;-77
2021/01/23 10:49:05;;;;;;;45.78;22.23;;;3.30;99.90;;;;;;4993996;28;20688;-77
2021/01/23 10:51:31;;;;;;;51.15;22.35;;;3.40;99.90;;;;;;5004040;28;20034;-78
2021/01/23 10:53:57;;;;;;;54.42;24.75;;;3.40;99.90;;;;;;5009364;28;20029;-80
2021/01/23 10:56:23;;;;;;;51.40;23.95;;;3.40;99.90;;;;;;4998651;28;20060;-76
2021/01/23 10:58:49;;;;;;;44.50;20.98;;;3.40;99.90;;;;;;5000858;28;20161;-76
2021/01/23 11:01:15;;;;;;;44.38;20.75;;;3.30;99.90;;;;;;5033656;28;20116;-76
2021/01/23 11:03:41;;;;;;;39.35;19.15;;;3.20;99.90;;;;;;5001781;28;20030;-76
2021/01/23 11:06:07;;;;;;;37.50;19.45;;;3.20;99.90;;;;;;4987528;28;20817;-76
2021/01/23 11:08:33;;;;;;;42.90;19.75;;;3.30;99.90;;;;;;4996315;28;20065;-76
2021/01/23 11:10:59;;;;;;;40.15;21.00;;;3.40;99.90;;;;;;4993465;28;20065;-77
2021/01/23 11:13:25;;;;;;;44.17;21.70;;;3.50;99.90;;;;;;5001182;28;20153;-78
2021/01/23 11:15:50;;;;;;;45.92;22.63;;;3.50;99.90;;;;;;4990737;28;20037;-77
2021/01/23 11:18:16;;;;;;;51.28;24.30;;;3.50;99.90;;;;;;4987436;28;20146;-76
2021/01/23 11:20:42;;;;;;;44.92;23.42;;;3.50;99.90;;;;;;4998695;28;20044;-75
2021/01/23 11:23:08;;;;;;;47.42;22.83;;;3.50;99.90;;;;;;5008641;28;20041;-76
2021/01/23 11:25:34;;;;;;;45.70;21.88;;;3.40;99.90;;;;;;4993059;28;20029;-76
2021/01/23 11:27:59;;;;;;;38.25;18.05;;;3.50;99.90;;;;;;5009392;28;20069;-76
2021/01/23 11:30:25;;;;;;;38.08;20.05;;;3.40;99.90;;;;;;4990446;28;20045;-76
2021/01/23 11:32:52;;;;;;;37.53;18.80;;;3.50;99.90;;;;;;4993033;28;20037;-77
2021/01/23 11:35:18;;;;;;;43.55;21.27;;;3.50;99.90;;;;;;5001253;28;20056;-76
2021/01/23 11:37:44;;;;;;;41.13;20.27;;;3.70;99.90;;;;;;5006333;28;20817;-76
2021/01/23 11:40:10;;;;;;;51.33;24.33;;;3.70;99.90;;;;;;4986245;28;20564;-76
2021/01/23 11:42:37;;;;;;;56.00;27.67;;;3.70;99.90;;;;;;4990337;28;20450;-82
2021/01/23 11:45:08;;;;;;;65.35;31.90;;;3.60;99.90;;;;;;5008326;28;20036;-82
2021/01/23 11:47:34;;;;;;;46.30;23.58;;;3.70;99.90;;;;;;5001148;28;20627;-83
2021/01/23 11:50:00;;;;;;;54.97;26.98;;;3.80;99.90;;;;;;4985517;28;20056;-81
2021/01/23 11:52:26;;;;;;;48.63;23.80;;;3.80;99.90;;;;;;4973977;28;20034;-79
2021/01/23 11:54:52;;;;;;;47.38;20.55;;;3.80;99.90;;;;;;5011966;28;20075;-80
2021/01/23 11:57:17;;;;;;;41.83;20.70;;;3.80;99.90;;;;;;4986409;28;20132;-80
2021/01/23 11:59:43;;;;;;;40.58;20.42;;;3.80;99.90;;;;;;4998343;28;20041;-80
2021/01/23 12:02:09;;;;;;;40.85;21.33;;;3.90;99.90;;;;;;5001148;28;20136;-80
2021/01/23 12:04:34;;;;;;;40.17;20.20;;;3.80;99.90;;;;;;5004689;28;20148;-76
2021/01/23 12:07:00;;;;;;;44.22;21.83;;;3.80;99.90;;;;;;4981533;28;20065;-77
2021/01/23 12:09:27;;;;;;;39.25;21.00;;;3.80;99.90;;;;;;4999148;28;20037;-76
2021/01/23 12:11:53;;;;;;;44.00;22.60;;;3.90;99.90;;;;;;4980675;28;20080;-77
2021/01/23 12:14:18;;;;;;;52.15;24.23;;;3.90;99.90;;;;;;4997606;28;20103;-76
2021/01/23 12:16:44;;;;;;;45.13;22.25;;;3.90;99.90;;;;;;4999368;28;20783;-76
2021/01/23 12:19:10;;;;;;;42.85;21.00;;;4.00;99.90;;;;;;4983346;28;20046;-76
2021/01/23 12:21:35;;;;;;;54.38;21.80;;;4.00;99.90;;;;;;4982698;28;20033;-78
2021/01/23 12:24:01;;;;;;;53.28;24.20;;;4.10;99.90;;;;;;5002259;28;20084;-76
2021/01/23 12:26:27;;;;;;;50.08;22.73;;;4.00;99.90;;;;;;4999285;28;20040;-77
2021/01/23 12:28:53;;;;;;;51.55;25.00;;;4.00;99.90;;;;;;5003974;28;20029;-75
2021/01/23 12:31:19;;;;;;;47.03;24.23;;;4.00;99.90;;;;;;5007251;28;20245;-82
2021/01/23 12:33:45;;;;;;;40.30;19.38;;;4.10;99.90;;;;;;4999984;28;20038;-80
2021/01/23 12:36:11;;;;;;;50.95;22.60;;;4.10;99.90;;;;;;4989189;28;20033;-80
2021/01/23 12:38:37;;;;;;;39.22;19.85;;;4.10;99.90;;;;;;4983486;28;20041;-78
2021/01/23 12:41:03;;;;;;;38.65;17.70;;;4.00;99.90;;;;;;4993242;28;20113;-78
2021/01/23 12:43:29;;;;;;;37.50;18.45;;;4.00;99.90;;;;;;5006119;28;20032;-78
2021/01/23 12:45:55;;;;;;;37.75;19.25;;;3.90;99.90;;;;;;4981068;28;20850;-77
2021/01/23 12:48:22;;;;;;;47.30;19.73;;;3.90;99.90;;;;;;5007920;28;20046;-78
2021/01/23 12:50:51;;;;;;;34.22;18.08;;;3.80;99.90;;;;;;5001305;28;20611;-77
2021/01/23 12:53:17;;;;;;;36.78;18.73;;;3.80;99.90;;;;;;4999120;28;20049;-77